Time;durP1;ratioP1;P1;durP2;ratioP2;P2;SDS_P1;SDS_P2;PMS_P1;PMS_P2;Temp;Humidity;BMP_temperature;BMP_pressure;BME280_temperature;BME280_humidity;BME280_pressure;Samples;Min_cycle;Max_cycle;Signal;HPM_P1;HPM_P2
2022/03/14 00:01:12;;;;;;;6.82;1.60;;;;;;;1.28;100.00;100758.88;5035342;28;20032;-60
2022/03/14 00:03:48;;;;;;;4.05;1.70;;;;;;;1.29;100.00;100750.06;5041310;28;20064;-58
2022/03/14 00:06:14;;;;;;;1.20;0.75;;;;;;;1.24;100.00;100771.38;5027906;28;20025;-60
2022/03/14 00:08:41;;;;;;;5.90;1.27;;;;;;;1.18;100.00;100763.19;5030731;28;20138;-59
2022/03/14 00:11:07;;;;;;;4.10;1.48;;;;;;;1.07;100.00;100764.88;5036212;28;20498;-60
2022/03/14 00:13:32;;;;;;;10.55;2.55;;;;;;;0.99;100.00;100780.31;5027772;28;20127;-58
2022/03/14 00:15:59;;;;;;;6.35;1.17;;;;;;;0.92;100.00;100784.38;5036936;28;20506;-60
2022/03/14 00:18:26;;;;;;;9.30;2.03;;;;;;;0.90;100.00;100782.81;5029631;28;20037;-59
2022/03/14 00:20:51;;;;;;;1.85;0.82;;;;;;;0.87;100.00;100782.09;5034282;28;20040;-60
2022/03/14 00:23:18;;;;;;;3.70;1.13;;;;;;;0.85;100.00;100791.00;5029970;28;20041;-54
2022/03/14 00:25:43;;;;;;;6.47;1.58;;;;;;;0.81;100.00;100794.84;5026175;28;20045;-62
2022/03/14 00:28:08;;;;;;;8.43;1.48;;;;;;;0.80;100.00;100806.22;5030953;28;20032;-60
2022/03/14 00:30:34;;;;;;;5.75;0.98;;;;;;;0.77;100.00;100814.28;5033970;28;20040;-59
2022/03/14 00:32:59;;;;;;;4.43;1.50;;;;;;;0.78;100.00;100813.34;5030307;28;20301;-60
2022/03/14 00:35:25;;;;;;;1.83;1.63;;;;;;;0.78;100.00;100810.75;5033978;28;20444;-56
2022/03/14 00:37:50;;;;;;;4.50;2.00;;;;;;;0.77;100.00;100811.66;5026801;28;20112;-61
2022/03/14 00:40:16;;;;;;;3.92;1.13;;;;;;;0.76;100.00;100817.84;5034211;28;20121;-56
2022/03/14 00:42:41;;;;;;;8.30;1.48;;;;;;;0.73;100.00;100825.94;5032870;28;20055;-60
2022/03/14 00:45:07;;;;;;;1.50;1.40;;;;;;;0.71;100.00;100833.03;5038063;28;20041;-61
2022/03/14 00:47:33;;;;;;;5.53;1.58;;;;;;;0.68;100.00;100838.50;5023127;28;20466;-58
2022/03/14 00:49:59;;;;;;;5.13;1.75;;;;;;;0.63;100.00;100841.47;5036039;28;20116;-57
2022/03/14 00:52:24;;;;;;;3.08;1.30;;;;;;;0.56;100.00;100854.13;5031680;28;20033;-60
2022/03/14 00:54:49;;;;;;;3.25;1.08;;;;;;;0.52;100.00;100851.91;5024139;28;20471;-58
2022/03/14 00:57:15;;;;;;;3.35;1.13;;;;;;;0.48;100.00;100848.69;5033064;28;20561;-60
2022/03/14 00:59:41;;;;;;;5.88;1.98;;;;;;;0.46;100.00;100852.34;5028920;28;20029;-58
2022/03/14 01:02:08;;;;;;;5.97;1.52;;;;;;;0.47;100.00;100856.63;5030439;28;20524;-61
2022/03/14 01:04:33;;;;;;;4.70;1.45;;;;;;;0.47;100.00;100861.84;5028922;28;20397;-58
2022/03/14 01:07:00;;;;;;;6.03;1.42;;;;;;;0.43;100.00;100869.06;5032231;28;20029;-60
2022/03/14 01:09:25;;;;;;;4.93;1.50;;;;;;;0.37;100.00;100869.53;5029313;28;20029;-59
2022/03/14 01:11:51;;;;;;;5.05;1.55;;;;;;;0.25;100.00;100868.66;5038114;28;20078;-58
2022/03/14 01:14:16;;;;;;;3.65;1.50;;;;;;;0.17;100.00;100874.44;5035385;28;20235;-58
2022/03/14 01:16:42;;;;;;;5.28;2.10;;;;;;;0.12;100.00;100878.34;5027369;28;20037;-60
2022/03/14 01:19:11;;;;;;;3.92;2.13;;;;;;;0.06;100.00;100894.47;5032918;28;20041;-59
2022/03/14 01:21:39;;;;;;;1.50;1.02;;;;;;;0.04;100.00;100905.00;5027123;28;20700;-56
2022/03/14 01:24:05;;;;;;;3.88;1.27;;;;;;;-0.02;100.00;100900.25;5026144;28;20540;-58
2022/03/14 01:26:34;;;;;;;4.07;1.77;;;;;;;-0.07;100.00;100912.78;5036402;28;20521;-57
2022/03/14 01:28:59;;;;;;;3.20;1.52;;;;;;;-0.14;100.00;100916.75;5023872;28;20029;-54
2022/03/14 01:31:26;;;;;;;7.55;1.33;;;;;;;-0.16;100.00;100923.84;5026765;28;20517;-57
2022/03/14 01:33:51;;;;;;;2.55;0.75;;;;;;;-0.22;100.00;100930.34;5027470;28;20362;-59
2022/03/14 01:36:17;;;;;;;3.80;1.10;;;;;;;-0.23;100.00;100928.69;5032304;28;20432;-57
2022/03/14 01:38:42;;;;;;;3.55;0.98;;;;;;;-0.27;100.00;100938.50;5027115;28;20029;-57
2022/03/14 01:41:10;;;;;;;3.40;0.93;;;;;;;-0.28;100.00;100944.66;5029864;28;20374;-57
2022/03/14 01:43:35;;;;;;;12.60;1.50;;;;;;;-0.30;100.00;100943.09;5035596;28;20037;-60
2022/03/14 01:46:01;;;;;;;4.75;1.58;;;;;;;-0.32;100.00;100950.19;5035417;28;20043;-59
2022/03/14 01:48:26;;;;;;;3.28;1.50;;;;;;;-0.38;100.00;100941.03;5030347;28;20040;-58
2022/03/14 01:50:52;;;;;;;3.65;1.67;;;;;;;-0.47;100.00;100944.28;5031969;28;20036;-60
2022/03/14 01:53:19;;;;;;;5.10;1.13;;;;;;;-0.52;100.00;100949.81;5035196;28;20043;-56
2022/03/14 01:55:46;;;;;;;6.25;1.65;;;;;;;-0.58;100.00;100958.06;5025985;28;20037;-59
2022/03/14 01:58:13;;;;;;;1.83;0.80;;;;;;;-0.60;100.00;100979.94;5029048;28;20048;-55
2022/03/14 02:00:39;;;;;;;4.15;1.27;;;;;;;-0.62;100.00;100990.50;5030013;28;20349;-53
2022/03/14 02:03:04;;;;;;;2.22;1.17;;;;;;;-0.65;100.00;100995.88;5036258;28;20063;-56
2022/03/14 02:05:30;;;;;;;6.18;1.80;;;;;;;-0.62;100.00;100994.84;5027926;28;20407;-53
2022/03/14 02:07:57;;;;;;;3.83;1.08;;;;;;;-0.62;100.00;101000.06;5034892;28;20048;-55
2022/03/14 02:10:22;;;;;;;3.72;1.30;;;;;;;-0.67;100.00;101008.22;5029278;28;20063;-61
2022/03/14 02:12:47;;;;;;;7.00;1.75;;;;;;;-0.70;100.00;101011.84;5040070;28;20033;-55
2022/03/14 02:15:13;;;;;;;1.75;1.55;;;;;;;-0.72;100.00;101011.13;5029484;28;20025;-57
2022/03/14 02:17:38;;;;;;;1.85;1.27;;;;;;;-0.78;100.00;101013.31;5036303;28;20041;-57
2022/03/14 02:20:04;;;;;;;6.75;1.25;;;;;;;-0.84;100.00;101027.56;5030310;28;20076;-52
2022/03/14 02:22:29;;;;;;;2.70;0.85;;;;;;;-0.91;100.00;101031.53;5036159;28;20175;-57
2022/03/14 02:24:55;;;;;;;3.97;1.13;;;;;;;-0.94;100.00;101036.94;5039492;28;20414;-54
2022/03/14 02:27:20;;;;;;;2.25;2.03;;;;;;;-0.95;100.00;101040.50;5030691;28;20107;-53
2022/03/14 02:29:46;;;;;;;1.73;0.95;;;;;;;-0.97;100.00;101044.97;5029877;28;20036;-54
2022/03/14 02:32:12;;;;;;;7.53;1.10;;;;;;;-1.00;100.00;101048.59;5038224;28;20502;-56
2022/03/14 02:34:39;;;;;;;3.25;0.80;;;;;;;-1.01;100.00;101053.91;5034738;28;20074;-54
2022/03/14 02:37:04;;;;;;;2.67;0.80;;;;;;;-1.07;100.00;101060.34;5037469;28;20065;-55
2022/03/14 02:39:32;;;;;;;4.63;1.90;;;;;;;-1.13;100.00;101060.78;5032134;28;20057;-59
2022/03/14 02:41:59;;;;;;;1.85;0.70;;;;;;;-1.16;100.00;101063.56;5040053;28;20042;-57
2022/03/14 02:44:25;;;;;;;4.07;0.88;;;;;;;-1.19;100.00;101068.97;5038594;28;20793;-53
2022/03/14 02:46:50;;;;;;;4.95;0.98;;;;;;;-1.21;100.00;101061.28;5030322;28;20158;-57
2022/03/14 02:49:15;;;;;;;1.23;0.93;;;;;;;-1.23;100.00;101067.50;5035866;28;20041;-55
2022/03/14 02:51:41;;;;;;;2.63;1.73;;;;;;;-1.26;100.00;101068.56;5027254;28;20033;-57
2022/03/14 02:54:08;;;;;;;0.77;0.77;;;;;;;-1.28;100.00;101078.22;5037579;28;20493;-57
2022/03/14 02:56:34;;;;;;;3.72;0.90;;;;;;;-1.27;100.00;101084.25;5028857;28;20047;-57
2022/03/14 02:59:00;;;;;;;6.43;2.17;;;;;;;-1.29;100.00;101089.56;5025438;28;20029;-53
2022/03/14 03:01:25;;;;;;;1.35;0.75;;;;;;;-1.31;100.00;101086.22;5028332;28;20025;-56
2022/03/14 03:03:50;;;;;;;1.48;0.55;;;;;;;-1.34;100.00;101089.03;5033344;28;20152;-53
2022/03/14 03:06:19;;;;;;;9.05;1.25;;;;;;;-1.38;100.00;101096.19;5025617;28;20133;-57
2022/03/14 03:08:45;;;;;;;1.95;0.73;;;;;;;-1.39;100.00;101104.09;5031224;28;20576;-55
2022/03/14 03:11:11;;;;;;;1.00;0.68;;;;;;;-1.40;100.00;101107.63;5034944;28;20041;-56
2022/03/14 03:13:40;;;;;;;3.38;1.17;;;;;;;-1.40;100.00;101110.22;5034143;28;20040;-58
2022/03/14 03:16:07;;;;;;;4.05;1.55;;;;;;;-1.45;100.00;101118.31;5023735;28;20033;-57
2022/03/14 03:18:32;;;;;;;1.83;1.02;;;;;;;-1.49;100.00;101119.47;5040471;28;20024;-55
2022/03/14 03:20:57;;;;;;;1.38;0.75;;;;;;;-1.52;100.00;101124.00;5031750;28;20086;-57
2022/03/14 03:23:23;;;;;;;3.60;1.05;;;;;;;-1.59;100.00;101132.19;5035681;28;20519;-54
2022/03/14 03:25:48;;;;;;;1.50;0.70;;;;;;;-1.62;100.00;101139.38;5027028;28;20034;-56
2022/03/14 03:28:13;;;;;;;5.03;0.80;;;;;;;-1.65;100.00;101143.00;5027884;28;20845;-54
2022/03/14 03:30:39;;;;;;;2.67;0.57;;;;;;;-1.64;100.00;101152.47;5033397;28;20068;-54
2022/03/14 03:33:04;;;;;;;6.30;0.75;;;;;;;-1.68;100.00;101150.97;5037530;28;20132;-57
2022/03/14 03:35:29;;;;;;;1.27;0.60;;;;;;;-1.72;100.00;101156.47;5030601;28;20044;-57
2022/03/14 03:37:55;;;;;;;4.78;0.98;;;;;;;-1.76;100.00;101158.41;5027793;28;20757;-55
2022/03/14 03:40:20;;;;;;;4.80;1.58;;;;;;;-1.77;100.00;101172.34;5035952;28;20513;-58
2022/03/14 03:42:46;;;;;;;13.38;1.55;;;;;;;-1.77;100.00;101167.97;5029451;28;20147;-53
2022/03/14 03:45:13;;;;;;;7.47;0.73;;;;;;;-1.77;100.00;101172.34;5024333;28;20051;-53
2022/03/14 03:47:39;;;;;;;2.95;1.05;;;;;;;-1.77;100.00;101177.56;5026500;28;20384;-58
2022/03/14 03:50:05;;;;;;;1.42;0.60;;;;;;;-1.79;100.00;101182.84;5036076;28;20482;-56
2022/03/14 03:52:30;;;;;;;3.72;0.40;;;;;;;-1.80;100.00;101188.16;5033949;28;20090;-56
2022/03/14 03:54:56;;;;;;;3.35;1.55;;;;;;;-1.84;100.00;101187.47;5031334;28;20056;-55
2022/03/14 03:57:21;;;;;;;4.72;0.93;;;;;;;-1.85;100.00;101198.00;5026652;28;20120;-57
2022/03/14 03:59:47;;;;;;;2.95;0.65;;;;;;;-1.89;100.00;101205.13;5024316;28;20025;-57
2022/03/14 04:02:12;;;;;;;2.08;0.45;;;;;;;-1.89;100.00;101206.88;5032759;28;20059;-54
2022/03/14 04:04:39;;;;;;;2.78;0.60;;;;;;;-1.91;100.00;101206.16;5030469;28;20510;-55
2022/03/14 04:07:06;;;;;;;1.88;0.43;;;;;;;-1.93;100.00;101206.25;5028570;28;20044;-53
2022/03/14 04:09:32;;;;;;;4.60;3.00;;;;;;;-1.96;100.00;101211.66;5030484;28;20034;-55
2022/03/14 04:11:57;;;;;;;9.82;1.63;;;;;;;-1.97;100.00;101209.97;5033861;28;20038;-54
2022/03/14 04:14:22;;;;;;;3.53;0.50;;;;;;;-1.99;100.00;101210.06;5027620;28;20037;-54
2022/03/14 04:16:48;;;;;;;2.08;1.02;;;;;;;-2.01;100.00;101211.91;5035698;28;20036;-56
2022/03/14 04:19:16;;;;;;;1.63;0.93;;;;;;;-2.04;100.00;101213.84;5031194;28;20071;-57
2022/03/14 04:21:52;;;;;;;3.55;0.40;;;;;;;-2.04;100.00;101225.09;5031552;28;20029;-53
2022/03/14 04:24:17;;;;;;;1.98;0.60;;;;;;;-2.05;100.00;101225.19;5030113;28;20112;-54
2022/03/14 04:26:43;;;;;;;9.35;0.70;;;;;;;-2.09;100.00;101231.47;5029654;28;20025;-53
2022/03/14 04:29:08;;;;;;;1.10;0.43;;;;;;;-2.10;100.00;101222.84;5031129;28;20037;-52
2022/03/14 04:31:34;;;;;;;1.75;0.98;;;;;;;-2.12;100.00;101234.25;5027872;28;20037;-54
2022/03/14 04:33:59;;;;;;;2.10;0.98;;;;;;;-2.15;100.00;101239.63;5031816;28;20496;-56
2022/03/14 04:36:24;;;;;;;2.92;0.55;;;;;;;-2.18;100.00;101240.66;5029476;28;20380;-53
2022/03/14 04:38:50;;;;;;;5.95;2.35;;;;;;;-2.21;100.00;101244.28;5025787;28;20076;-56
2022/03/14 04:41:15;;;;;;;2.15;0.68;;;;;;;-2.24;100.00;101259.22;5032369;28;20500;-56
2022/03/14 04:43:40;;;;;;;1.65;0.50;;;;;;;-2.27;100.00;101261.97;5028350;28;20107;-54
2022/03/14 04:46:06;;;;;;;9.00;0.82;;;;;;;-2.29;100.00;101259.47;5029639;28;20083;-53
2022/03/14 04:48:31;;;;;;;1.13;0.30;;;;;;;-2.29;100.00;101263.84;5035718;28;20614;-55
2022/03/14 04:50:57;;;;;;;2.45;0.50;;;;;;;-2.27;100.00;101264.56;5030988;28;20639;-53
2022/03/14 04:53:22;;;;;;;3.08;1.42;;;;;;;-2.27;100.00;101268.03;5028954;28;20564;-51
2022/03/14 04:55:47;;;;;;;2.92;0.65;;;;;;;-2.29;100.00;101275.06;5040863;28;20576;-53
2022/03/14 04:58:14;;;;;;;5.82;1.45;;;;;;;-2.32;100.00;101279.56;5035794;28;20033;-51
2022/03/14 05:00:40;;;;;;;8.80;0.75;;;;;;;-2.33;100.00;101277.91;5030489;28;20029;-52
2022/03/14 05:03:07;;;;;;;2.92;0.63;;;;;;;-2.33;100.00;101283.94;5026114;28;20030;-55
2022/03/14 05:05:33;;;;;;;2.00;0.60;;;;;;;-2.36;100.00;101278.09;5026094;28;20044;-52
2022/03/14 05:08:00;;;;;;;6.38;1.38;;;;;;;-2.36;100.00;101278.09;5032795;28;20041;-54
2022/03/14 05:10:25;;;;;;;2.50;0.60;;;;;;;-2.38;100.00;101293.75;5027129;28;20026;-56
2022/03/14 05:12:51;;;;;;;1.25;0.52;;;;;;;-2.40;100.00;101285.25;5030873;28;20036;-53
2022/03/14 05:15:17;;;;;;;2.00;0.57;;;;;;;-2.41;100.00;101291.34;5036263;28;20025;-49
2022/03/14 05:17:46;;;;;;;3.03;0.98;;;;;;;-2.44;100.00;101294.94;5028136;28;20025;-54
2022/03/14 05:20:12;;;;;;;4.25;0.63;;;;;;;-2.42;100.00;101300.91;5031707;28;20040;-51
2022/03/14 05:22:45;;;;;;;4.13;0.70;;;;;;;-2.45;100.00;101306.28;5032344;28;20493;-52
2022/03/14 05:25:11;;;;;;;1.55;0.80;;;;;;;-2.49;100.00;101311.72;5028791;28;20041;-53
2022/03/14 05:27:39;;;;;;;0.95;0.40;;;;;;;-2.50;100.00;101320.44;5029438;28;20037;-50
2022/03/14 05:30:06;;;;;;;3.35;0.65;;;;;;;-2.54;100.00;101317.16;5034207;28;20624;-50
2022/03/14 05:32:32;;;;;;;2.83;0.70;;;;;;;-2.56;100.00;101336.34;5029709;28;20124;-50
2022/03/14 05:34:57;;;;;;;1.58;0.47;;;;;;;-2.54;100.00;101337.94;5029536;28;20033;-52
2022/03/14 05:37:22;;;;;;;1.20;0.25;;;;;;;-2.55;100.00;101336.28;5027746;28;20035;-51
2022/03/14 05:39:49;;;;;;;8.32;0.88;;;;;;;-2.59;100.00;101334.75;5028686;28;20030;-52
2022/03/14 05:42:15;;;;;;;3.58;0.65;;;;;;;-2.58;100.00;101340.78;5031587;28;20300;-52
2022/03/14 05:44:42;;;;;;;3.15;0.30;;;;;;;-2.55;100.00;101354.47;5021988;28;20037;-53
2022/03/14 05:47:08;;;;;;;5.18;0.17;;;;;;;-2.46;100.00;101356.53;5025435;28;20041;-51
2022/03/14 05:49:33;;;;;;;0.85;0.30;;;;;;;-2.43;100.00;101356.38;5032814;28;20375;-49
2022/03/14 05:51:58;;;;;;;3.72;0.52;;;;;;;-2.45;100.00;101357.38;5032747;28;20031;-55
2022/03/14 05:54:24;;;;;;;2.03;0.55;;;;;;;-2.46;100.00;101368.69;5030383;28;20025;-51
2022/03/14 05:56:49;;;;;;;3.03;1.13;;;;;;;-2.48;100.00;101373.97;5028493;28;20104;-49
2022/03/14 05:59:14;;;;;;;0.20;0.20;;;;;;;-2.50;100.00;101375.81;5031362;28;20034;-50
2022/03/14 06:01:40;;;;;;;4.38;0.40;;;;;;;-2.51;100.00;101378.47;5037844;28;20079;-53
2022/03/14 06:04:06;;;;;;;3.95;0.20;;;;;;;-2.49;100.00;101382.66;5029127;28;20300;-54
2022/03/14 06:06:31;;;;;;;1.45;0.52;;;;;;;-2.49;100.00;101385.28;5034709;28;20104;-48
2022/03/14 06:08:57;;;;;;;6.45;0.80;;;;;;;-2.48;100.00;101388.69;5035085;28;20029;-56
2022/03/14 06:11:22;;;;;;;1.30;0.47;;;;;;;-2.50;100.00;101396.59;5031733;28;20033;-51
2022/03/14 06:13:47;;;;;;;7.95;1.42;;;;;;;-2.53;100.00;101396.78;5026272;28;20466;-49
2022/03/14 06:16:13;;;;;;;3.45;0.47;;;;;;;-2.57;100.00;101403.03;5038868;28;20052;-51
2022/03/14 06:18:39;;;;;;;4.80;0.28;;;;;;;-2.59;100.00;101401.44;5035412;28;20061;-54
2022/03/14 06:21:04;;;;;;;2.30;0.40;;;;;;;-2.61;100.00;101409.31;5028393;28;20128;-51
2022/03/14 06:23:30;;;;;;;3.50;0.20;;;;;;;-2.63;100.00;101422.38;5031619;28;20229;-53
2022/03/14 06:25:55;;;;;;;1.10;0.57;;;;;;;-2.61;100.00;101424.06;5029212;28;20709;-50
2022/03/14 06:28:22;;;;;;;12.75;1.52;;;;;;;-2.64;100.00;101419.88;5031594;28;20512;-51
2022/03/14 06:30:47;;;;;;;2.47;0.75;;;;;;;-2.67;100.00;101413.06;5031022;28;20099;-51
2022/03/14 06:33:13;;;;;;;2.38;0.32;;;;;;;-2.64;100.00;101420.69;5042006;28;20667;-55
2022/03/14 06:35:40;;;;;;;0.85;0.10;;;;;;;-2.59;100.00;101417.84;5029863;28;20021;-52
2022/03/14 06:38:06;;;;;;;0.80;0.57;;;;;;;-2.60;100.00;101433.53;5033419;28;20025;-54
2022/03/14 06:40:31;;;;;;;1.27;0.03;;;;;;;-2.64;100.00;101435.44;5030660;28;20026;-51
2022/03/14 06:42:57;;;;;;;0.65;0.20;;;;;;;-2.67;100.00;101440.81;5032590;28;20485;-54
2022/03/14 06:45:23;;;;;;;0.30;0.30;;;;;;;-2.64;100.00;101443.22;5027088;28;20041;-53
2022/03/14 06:47:53;;;;;;;0.85;0.40;;;;;;;-2.61;100.00;101452.63;5029936;28;20376;-52
2022/03/14 06:50:18;;;;;;;2.80;0.50;;;;;;;-2.63;100.00;101450.94;5032138;28;20029;-52
2022/03/14 06:52:44;;;;;;;5.65;0.60;;;;;;;-2.56;100.00;101463.59;5033498;28;20036;-54
2022/03/14 06:55:10;;;;;;;1.45;0.10;;;;;;;-2.54;100.00;101462.59;5026881;28;20029;-57
2022/03/14 06:57:39;;;;;;;1.38;0.43;;;;;;;-2.58;100.00;101462.84;5038810;28;20470;-56
2022/03/14 07:00:06;;;;;;;3.25;0.30;;;;;;;-2.60;100.00;101462.94;5031310;28;20041;-56
2022/03/14 07:02:31;;;;;;;4.18;0.68;;;;;;;-2.54;100.00;101472.16;5039840;28;20082;-53
2022/03/14 07:04:57;;;;;;;4.03;0.20;;;;;;;-2.47;100.00;101478.69;5040765;28;20490;-55
2022/03/14 07:07:22;;;;;;;3.47;0.10;;;;;;;-2.48;100.00;101477.88;5030593;28;20112;-54
2022/03/14 07:09:48;;;;;;;2.70;0.60;;;;;;;-2.50;100.00;101477.09;5034073;28;20055;-54
2022/03/14 07:12:13;;;;;;;0.45;0.17;;;;;;;-2.51;100.00;101482.38;5032682;28;20091;-55
2022/03/14 07:14:39;;;;;;;4.80;0.65;;;;;;;-2.49;100.00;101485.72;5032155;28;20209;-53
2022/03/14 07:17:05;;;;;;;3.60;0.38;;;;;;;-2.46;100.00;101488.16;5036056;28;20163;-53
2022/03/14 07:19:31;;;;;;;1.40;0.60;;;;;;;-2.38;100.00;101493.78;5025525;28;20033;-50
2022/03/14 07:21:56;;;;;;;9.50;2.45;;;;;;;-2.37;100.00;101494.63;5028475;28;20059;-54
2022/03/14 07:24:22;;;;;;;2.80;0.95;;;;;;;-2.40;100.00;101503.44;5038463;28;20041;-54
2022/03/14 07:26:47;;;;;;;2.25;0.20;;;;;;;-2.40;100.00;101511.22;5030146;28;20032;-53
2022/03/14 07:29:13;;;;;;;4.03;0.35;;;;;;;-2.33;100.00;101522.09;5030315;28;20032;-56
2022/03/14 07:31:41;;;;;;;0.40;0.35;;;;;;;-2.18;100.00;101525.66;5034774;28;20424;-51
2022/03/14 07:34:07;;;;;;;1.83;0.10;;;;;;;-2.02;100.00;101529.06;5025803;28;20052;-58
2022/03/14 07:36:34;;;;;;;3.00;0.50;;;;;;;-2.00;100.00;101535.88;5026336;28;20478;-51
2022/03/14 07:39:00;;;;;;;2.92;0.65;;;;;;;-1.84;100.00;101535.03;5022581;28;20029;-53
2022/03/14 07:41:25;;;;;;;2.38;0.60;;;;;;;-1.65;100.00;101530.47;5027583;28;20032;-56
2022/03/14 07:43:50;;;;;;;3.33;0.60;;;;;;;-1.52;100.00;101537.56;5031985;28;20053;-54
2022/03/14 07:46:16;;;;;;;5.90;0.70;;;;;;;-1.46;100.00;101542.44;5032711;28;20036;-53
2022/03/14 07:48:41;;;;;;;1.75;0.82;;;;;;;-1.30;100.00;101548.44;5034389;28;20041;-53
2022/03/14 07:51:08;;;;;;;6.25;0.75;;;;;;;-1.16;100.00;101542.41;5036762;28;20041;-54
2022/03/14 07:53:34;;;;;;;2.25;0.80;;;;;;;-0.91;100.00;101552.25;5033084;28;20030;-56
2022/03/14 07:55:59;;;;;;;2.75;0.68;;;;;;;-0.72;100.00;101558.06;5030751;28;20144;-54
2022/03/14 07:58:25;;;;;;;4.50;1.30;;;;;;;-0.53;100.00;101551.72;5034784;28;20037;-57
2022/03/14 08:00:50;;;;;;;0.95;0.93;;;;;;;-0.39;100.00;101548.28;5030711;28;20033;-56
2022/03/14 08:03:19;;;;;;;3.47;0.65;;;;;;;-0.20;100.00;101555.81;5031709;28;20036;-60
2022/03/14 08:05:46;;;;;;;1.42;0.77;;;;;;;0.02;100.00;101548.31;5033248;28;20140;-58
2022/03/14 08:08:15;;;;;;;1.58;0.70;;;;;;;0.23;100.00;101553.94;5029783;28;20037;-57
2022/03/14 08:10:41;;;;;;;4.88;0.80;;;;;;;0.47;100.00;101553.31;5023643;28;20135;-59
2022/03/14 08:13:07;;;;;;;1.70;1.08;;;;;;;0.72;100.00;101555.16;5026246;28;20533;-58
2022/03/14 08:15:34;;;;;;;3.40;1.05;;;;;;;0.95;100.00;101574.53;5027804;28;20052;-56
2022/03/14 08:18:06;;;;;;;2.80;0.43;;;;;;;1.15;100.00;101575.81;5024749;28;20038;-58
2022/03/14 08:20:32;;;;;;;4.43;0.43;;;;;;;1.24;100.00;101577.78;5033670;28;20394;-56
2022/03/14 08:23:00;;;;;;;3.28;0.30;;;;;;;1.33;100.00;101587.63;5025041;28;20431;-55
2022/03/14 08:25:26;;;;;;;2.60;0.70;;;;;;;1.43;100.00;101586.06;5041292;28;20028;-58
2022/03/14 08:27:52;;;;;;;2.50;0.85;;;;;;;1.62;100.00;101590.03;5028067;28;20516;-58
2022/03/14 08:30:21;;;;;;;3.85;1.10;;;;;;;1.92;100.00;101600.16;5024510;28;20033;-59
2022/03/14 08:32:47;;;;;;;3.65;1.30;;;;;;;2.26;100.00;101597.75;5026301;28;20041;-57
2022/03/14 08:35:13;;;;;;;2.65;1.40;;;;;;;2.65;100.00;101591.41;5029485;28;20029;-61
2022/03/14 08:37:41;;;;;;;5.32;2.15;;;;;;;3.02;100.00;101596.53;5024884;28;20025;-60
2022/03/14 08:40:09;;;;;;;5.38;1.60;;;;;;;3.37;100.00;101598.31;5030367;28;20144;-58
2022/03/14 08:42:35;;;;;;;2.90;1.25;;;;;;;3.88;100.00;101597.88;5037654;28;20049;-60
2022/03/14 08:45:01;;;;;;;3.10;1.35;;;;;;;4.38;100.00;101598.25;5025151;28;20040;-58
2022/03/14 08:47:26;;;;;;;6.80;1.33;;;;;;;5.02;100.00;101598.25;5027219;28;20033;-61
2022/03/14 08:49:52;;;;;;;1.67;0.70;;;;;;;5.14;100.00;101608.72;5031900;28;20076;-60
2022/03/14 08:52:17;;;;;;;2.58;1.10;;;;;;;5.13;100.00;101607.88;5037583;28;20043;-61
2022/03/14 08:54:43;;;;;;;2.10;1.23;;;;;;;5.17;100.00;101611.91;5023383;28;20033;-59
2022/03/14 08:57:09;;;;;;;6.10;0.47;;;;;;;5.24;100.00;101615.72;5026664;28;20044;-61
2022/03/14 08:59:34;;;;;;;6.32;1.00;;;;;;;5.31;100.00;101616.00;5034395;28;20497;-61
2022/03/14 09:02:00;;;;;;;1.13;0.77;;;;;;;5.57;100.00;101621.69;5043212;28;20051;-61
2022/03/14 09:04:25;;;;;;;1.92;0.90;;;;;;;5.92;100.00;101620.50;5029361;28;20099;-61
2022/03/14 09:06:51;;;;;;;5.35;0.60;;;;;;;6.10;100.00;101623.34;5037764;28;20043;-61
2022/03/14 09:09:18;;;;;;;3.40;1.55;;;;;;;6.23;100.00;101621.31;5033407;28;20384;-61
2022/03/14 09:11:44;;;;;;;5.05;1.05;;;;;;;6.43;100.00;101629.25;5034904;28;20104;-62
2022/03/14 09:14:09;;;;;;;1.80;0.80;;;;;;;6.61;100.00;101627.63;5022091;28;20567;-61
2022/03/14 09:16:35;;;;;;;4.35;0.80;;;;;;;6.71;100.00;101633.75;5023299;28;20095;-61
2022/03/14 09:19:01;;;;;;;3.00;0.50;;;;;;;6.81;100.00;101628.47;5031162;28;20061;-62
2022/03/14 09:21:27;;;;;;;3.63;0.82;;;;;;;6.89;100.00;101626.00;5034673;28;20037;-61
2022/03/14 09:23:53;;;;;;;2.53;0.70;;;;;;;7.12;100.00;101637.06;5026660;28;20021;-62
2022/03/14 09:26:19;;;;;;;4.90;1.52;;;;;;;7.38;100.00;101647.03;5032181;28;20029;-62
2022/03/14 09:28:44;;;;;;;1.73;0.28;;;;;;;7.46;100.00;101638.41;5037045;28;20105;-62
2022/03/14 09:31:13;;;;;;;3.17;0.50;;;;;;;7.51;100.00;101638.81;5031636;28;20032;-61
2022/03/14 09:33:39;;;;;;;2.60;0.30;;;;;;;7.54;100.00;101628.00;5032746;28;20053;-61
2022/03/14 09:36:05;;;;;;;4.07;0.45;;;;;;;7.50;100.00;101622.16;5037171;28;20053;-62
2022/03/14 09:38:30;;;;;;;9.80;0.80;;;;;;;7.41;100.00;101639.69;5026500;28;20091;-61
2022/03/14 09:41:01;;;;;;;3.00;0.60;;;;;;;7.39;100.00;101644.25;5026046;28;20390;-61
2022/03/14 09:43:28;;;;;;;2.90;1.03;;;;;;;7.43;100.00;101650.94;5035796;28;20029;-61
2022/03/14 09:45:55;;;;;;;6.60;0.45;;;;;;;7.55;100.00;101654.22;5027607;28;20036;-61
2022/03/14 09:48:23;;;;;;;8.95;0.65;;;;;;;7.65;100.00;101644.47;5027843;28;20703;-60
2022/03/14 09:50:49;;;;;;;6.85;1.45;;;;;;;7.84;100.00;101629.53;5032131;28;20025;-61
2022/03/14 09:53:17;;;;;;;5.32;1.30;;;;;;;7.98;100.00;101637.00;5034779;28;20084;-61
2022/03/14 09:55:45;;;;;;;4.68;0.85;;;;;;;8.03;100.00;101631.28;5032546;28;20072;-61
2022/03/14 09:58:12;;;;;;;5.05;0.80;;;;;;;8.07;100.00;101638.75;5027768;28;20049;-62
2022/03/14 10:00:38;;;;;;;5.75;1.05;;;;;;;8.11;100.00;101644.59;5032294;28;20033;-62
2022/03/14 10:03:04;;;;;;;3.33;0.80;;;;;;;8.09;100.00;101650.00;5026849;28;20411;-59
2022/03/14 10:05:29;;;;;;;2.53;0.93;;;;;;;8.05;100.00;101653.06;5029760;28;20239;-60
2022/03/14 10:07:55;;;;;;;2.47;0.43;;;;;;;8.05;100.00;101659.22;5025444;28;20036;-62
2022/03/14 10:10:21;;;;;;;4.80;0.63;;;;;;;8.05;100.00;101655.72;5026647;28;20038;-60
2022/03/14 10:12:52;;;;;;;4.93;0.63;;;;;;;8.13;100.00;101662.91;5031164;28;20390;-59
2022/03/14 10:15:19;;;;;;;9.10;1.30;;;;;;;8.24;100.00;101666.22;5035764;28;20033;-61
2022/03/14 10:17:45;;;;;;;13.75;2.72;;;;;;;8.44;100.00;101664.34;5034532;28;20513;-62
2022/03/14 10:20:11;;;;;;;4.80;0.57;;;;;;;8.74;100.00;101664.97;5031824;28;20285;-61
2022/03/14 10:22:40;;;;;;;1.63;0.38;;;;;;;9.07;100.00;101668.75;5034224;28;20033;-62
2022/03/14 10:25:11;;;;;;;5.82;0.55;;;;;;;9.38;100.00;101658.56;5040598;28;20209;-62
2022/03/14 10:27:39;;;;;;;0.87;0.20;;;;;;;9.62;100.00;101662.38;5032005;28;20048;-62
2022/03/14 10:30:07;;;;;;;5.35;1.00;;;;;;;9.82;100.00;101663.81;5039441;28;20289;-61
2022/03/14 10:32:36;;;;;;;4.53;0.20;;;;;;;10.09;100.00;101669.91;5034894;28;20118;-62
2022/03/14 10:35:07;;;;;;;6.40;0.63;;;;;;;10.28;100.00;101665.41;5043474;28;20606;-63
2022/03/14 10:37:34;;;;;;;7.35;1.30;;;;;;;10.26;100.00;101662.88;5034125;28;20029;-62
2022/03/14 10:40:09;;;;;;;11.00;0.93;;;;;;;10.31;100.00;101675.69;5029336;28;20037;-62
2022/03/14 10:42:42;;;;;;;4.03;0.40;;;;;;;10.35;100.00;101659.31;5031248;28;20072;-62
2022/03/14 10:45:18;;;;;;;3.55;0.25;;;;;;;10.30;100.00;101653.66;5036891;28;20548;-60
2022/03/14 10:47:45;;;;;;;1.75;0.38;;;;;;;10.50;100.00;101664.78;5034080;28;20490;-62
2022/03/14 10:50:28;;;;;;;0.75;0.38;;;;;;;10.79;100.00;101648.47;5033541;28;20666;-61
2022/03/14 10:53:02;;;;;;;3.83;0.30;;;;;;;10.87;100.00;101656.44;5030111;28;20434;-64
2022/03/14 10:55:35;;;;;;;2.67;1.02;;;;;;;10.94;100.00;101658.41;5029210;28;20493;-63
2022/03/14 10:58:10;;;;;;;2.80;0.20;;;;;;;10.99;100.00;101643.66;5035968;28;20099;-59
2022/03/14 11:00:45;;;;;;;1.63;0.43;;;;;;;11.21;100.00;101650.13;5031562;28;20391;-62
2022/03/14 11:03:11;;;;;;;4.22;0.93;;;;;;;11.34;100.00;101654.94;5038796;28;20045;-61
2022/03/14 11:05:44;;;;;;;2.13;0.63;;;;;;;11.33;100.00;101647.94;5027950;28;20033;-63
2022/03/14 11:08:36;;;;;;;1.42;0.20;;;;;;;11.56;100.00;101653.41;5026553;28;20204;-62
2022/03/14 11:11:08;;;;;;;2.03;0.20;;;;;;;11.77;100.00;101648.41;5028582;28;20060;-59
2022/03/14 11:13:42;;;;;;;2.83;0.22;;;;;;;11.67;100.00;101649.56;5030148;28;20036;-61
2022/03/14 11:16:21;;;;;;;2.97;0.95;;;;;;;11.58;100.00;101638.13;5031453;28;20094;-60